1887 Cyclonic Storm NOT_NAMED (1887198N21088)


IBTrACS version v04r00. Visit IBTrACS website for data access.
Please direct all questions to the IBTrACS Q and A forum

Storm track - Intensity - Wind Radii - Intensity Data - Source Data - All data

Summary Information

Storm ID 1887198N21088
Start Jul 17 00Z
Landfall Jul 21 12Z
Max Intensity 34 kt (Jul 17 03Z)
End Jul 27 15Z
ATCF IDs
Track status Best track data.

Storm track plot

Map of storm track

Intensity plots

Map of storm track

Radial wind information

No radial wind information for this storm


Position and Intensity Table

BASIN ISO_TIME_________ NATURE LAT LON DS824 WIND
degrees north degrees east kts
NI 1887-07-17 00:00:00 TS 21.00 88.00 34
NI 03:00:00 TS 20.99 87.96 34
NI 06:00:00 TS 21.01 87.93 34
NI 09:00:00 TS 21.05 87.91 34
NI 12:00:00 TS 21.09 87.91 34
NI 15:00:00 TS 21.13 87.90 34
NI 18:00:00 TS 21.16 87.90 34
NI 21:00:00 TS 21.17 87.90 34
NI 1887-07-18 00:00:00 TS 21.19 87.90 34
NI 03:00:00 TS 21.23 87.88 34
NI 06:00:00 TS 21.26 87.84 34
NI 09:00:00 TS 21.28 87.82 34
NI 12:00:00 TS 21.29 87.81 34
NI 15:00:00 TS 21.30 87.80 34
NI 18:00:00 TS 21.30 87.80 34
NI 21:00:00 TS 21.30 87.80 34
NI 1887-07-19 00:00:00 TS 21.30 87.80 34
NI 03:00:00 TS 21.30 87.80 34
NI 06:00:00 TS 21.31 87.80 34
NI 09:00:00 TS 21.35 87.80 34
NI 12:00:00 TS 21.39 87.80 34
NI 15:00:00 TS 21.40 87.80 34
NI 18:00:00 TS 21.40 87.79 34
NI 21:00:00 TS 21.40 87.75 34
NI 1887-07-20 00:00:00 TS 21.40 87.71 34
NI 03:00:00 TS 21.40 87.70 34
NI 06:00:00 TS 21.41 87.70 34
NI 09:00:00 TS 21.45 87.70 34
NI 12:00:00 TS 21.49 87.70 34
NI 15:00:00 TS 21.50 87.67 34
NI 18:00:00 TS 21.51 87.64 34
NI 21:00:00 TS 21.55 87.62 34
NI 1887-07-21 00:00:00 TS 21.59 87.61 34
NI 03:00:00 TS 21.60 87.60 34
NI 06:00:00 TS 21.61 87.60 34
NI 09:00:00 TS 21.65 87.60 34
NI 12:00:00 TS 21.69 87.60 34
NI 15:00:00 TS 21.73 87.60 34
NI 18:00:00 TS 21.76 87.59 34
NI 21:00:00 TS 21.78 87.55 34
NI 1887-07-22 00:00:00 TS 21.79 87.51 34
NI 03:00:00 TS 21.82 87.50 34
NI 06:00:00 TS 21.86 87.50 34
NI 09:00:00 TS 21.88 87.50 34
NI 12:00:00 TS 21.89 87.50 34
NI 15:00:00 TS 21.90 87.47 34
NI 18:00:00 TS 21.91 87.44 34
NI 21:00:00 TS 21.95 87.43 34
NI 1887-07-23 00:00:00 TS 21.99 87.41 34
NI 03:00:00 TS 22.03 87.38 34
NI 06:00:00 TS 22.06 87.34 34
NI 09:00:00 TS 22.08 87.32 34
NI 12:00:00 TS 22.09 87.31 34
NI 15:00:00 TS 22.10 87.30 34
NI 18:00:00 TS 22.11 87.33 34
NI 21:00:00 TS 22.14 87.36 34
NI 1887-07-24 00:00:00 TS 22.19 87.28 34
NI 03:00:00 TS 22.26 86.99 34
NI 06:00:00 TS 22.31 86.51 34
NI 09:00:00 TS 22.30 85.98 34
NI 12:00:00 TS 22.28 85.41 34
NI 15:00:00 TS 22.31 84.83 33
NI 18:00:00 TS 22.37 84.27 32
NI 21:00:00 TS 22.44 83.71 31
NI 1887-07-25 00:00:00 TS 22.54 83.16 30
NI 03:00:00 TS 22.69 82.67 30
NI 06:00:00 TS 22.89 82.20 30
NI 09:00:00 TS 23.10 81.75 30
NI 12:00:00 TS 23.30 81.31 30
NI 15:00:00 TS 23.45 80.89 30
NI 18:00:00 TS 23.57 80.48 30
NI 21:00:00 TS 23.70 80.08 30
NI 1887-07-26 00:00:00 TS 23.84 79.75 30
NI 03:00:00 TS 23.97 79.51 30
NI 06:00:00 TS 24.12 79.37 30
NI 09:00:00 TS 24.26 79.29 30
NI 12:00:00 TS 24.42 79.17 30
NI 15:00:00 TS 24.60 78.94 30
NI 18:00:00 TS 24.77 78.59 30
NI 21:00:00 TS 24.92 78.23 30
NI 1887-07-27 00:00:00 TS 25.09 77.87 30
NI 03:00:00 TS 25.31 77.56 30
NI 06:00:00 TS 25.56 77.34 30
NI 09:00:00 TS 25.87 77.18 30
NI 12:00:00 TS 26.18 77.08 30
NI 15:00:00 NR 26.40 77.00

Source Information

Agency Information
USA
TOKYO
CMA
HKO
NEWDELHI
REUNION
BOM
NADI
WELLINGTON
DS824 n_ind.dat:114:NOT NAMED
TD9636 cons_worldwide_trop_cyclone_18710101-19891231-004:Line=1125
TD9635
NEUMANN
MLC

All available IBTrACS Data

SEASON BASIN SUBBASIN ISO_TIME_________ NATURE LAT LON DIST2LAND LANDFALL IFLAG USA SSHS DS824 LAT DS824 LON DS824 STAGE DS824 WIND TD9636 LAT TD9636 LON TD9636 STAGE STORM SPEED STORM DIR
Year degrees north degrees east km km 1 degrees north degrees east kts degrees north degrees east kts degrees
1887 NI BB 1887-07-17 00:00:00 TS 21.00 88.00 70 70 _________O____ -1 21.00 88.00 TC 34 1 260
1887 NI BB 03:00:00 TS 20.99 87.96 70 70 _________PO___ -1 20.99 87.94 TC 34 21.00 88.00 2 1 278
1887 NI BB 06:00:00 TS 21.01 87.93 73 73 _________OP___ -1 21.00 87.90 TC 34 21.03 87.97 2 1 320
1887 NI BB 09:00:00 TS 21.05 87.91 73 63 _________PP___ -1 21.04 87.89 TC 34 21.05 87.94 2 1 348
1887 NI BB 12:00:00 TS 21.09 87.91 63 63 _________OP___ -1 21.10 87.90 TC 34 21.08 87.91 2 1 0
1887 NI BB 15:00:00 TS 21.13 87.90 63 54 _________PO___ -1 21.16 87.90 TC 34 21.10 87.90 2 1 341
1887 NI BB 18:00:00 TS 21.16 87.90 54 54 _________OP___ -1 21.20 87.90 TC 34 21.12 87.90 2 0 0
1887 NI BB 21:00:00 TS 21.17 87.90 54 54 _________PP___ -1 21.20 87.91 TC 34 21.15 87.90 2 0 0
1887 NI BB 1887-07-18 00:00:00 TS 21.19 87.90 54 54 _________OP___ -1 21.20 87.90 TC 34 21.17 87.90 2 1 333
1887 NI BB 03:00:00 TS 21.23 87.88 54 44 _________PO___ -1 21.25 87.85 TC 34 21.20 87.90 2 1 323
1887 NI BB 06:00:00 TS 21.26 87.84 44 44 _________OP___ -1 21.30 87.80 TC 34 21.23 87.88 2 1 317
1887 NI BB 09:00:00 TS 21.28 87.82 44 44 _________PP___ -1 21.31 87.79 TC 34 21.26 87.85 2 0 0
1887 NI BB 12:00:00 TS 21.29 87.81 44 44 _________OP___ -1 21.30 87.80 TC 34 21.28 87.82 2 0 0
1887 NI BB 15:00:00 TS 21.30 87.80 44 44 _________PO___ -1 21.30 87.80 TC 34 21.30 87.80 2 0 0
1887 NI BB 18:00:00 TS 21.30 87.80 44 44 _________OP___ -1 21.30 87.80 TC 34 21.30 87.79 2 0 0
1887 NI BB 21:00:00 TS 21.30 87.80 44 44 _________PP___ -1 21.30 87.80 TC 34 21.30 87.79 2 0 0
1887 NI BB 1887-07-19 00:00:00 TS 21.30 87.80 44 44 _________OP___ -1 21.30 87.80 TC 34 21.30 87.80 2 0 0
1887 NI BB 03:00:00 TS 21.30 87.80 44 44 _________PO___ -1 21.29 87.80 TC 34 21.30 87.80 2 0 0
1887 NI BB 06:00:00 TS 21.31 87.80 44 44 _________OP___ -1 21.30 87.80 TC 34 21.32 87.80 2 1 16
1887 NI BB 09:00:00 TS 21.35 87.80 33 33 _________PP___ -1 21.35 87.80 TC 34 21.35 87.81 2 1 9
1887 NI BB 12:00:00 TS 21.39 87.80 33 33 _________OP___ -1 21.40 87.80 TC 34 21.38 87.81 2 1 16
1887 NI BB 15:00:00 TS 21.40 87.80 33 33 _________PO___ -1 21.41 87.81 TC 34 21.40 87.80 2 0 0
1887 NI BB 18:00:00 TS 21.40 87.79 33 33 _________OP___ -1 21.40 87.80 TC 34 21.40 87.78 2 1 266
1887 NI BB 21:00:00 TS 21.40 87.75 33 33 _________PP___ -1 21.40 87.75 TC 34 21.40 87.75 2 1 267
1887 NI BB 1887-07-20 00:00:00 TS 21.40 87.71 33 33 _________OP___ -1 21.40 87.70 TC 34 21.40 87.72 2 1 266
1887 NI BB 03:00:00 TS 21.40 87.70 33 33 _________PO___ -1 21.39 87.69 TC 34 21.40 87.70 2 0 0
1887 NI BB 06:00:00 TS 21.41 87.70 33 33 _________OP___ -1 21.40 87.70 TC 34 21.42 87.70 2 1 27
1887 NI BB 09:00:00 TS 21.45 87.70 33 22 _________PP___ -1 21.45 87.71 TC 34 21.44 87.70 2 1 15
1887 NI BB 12:00:00 TS 21.49 87.70 22 22 _________OP___ -1 21.50 87.70 TC 34 21.47 87.70 2 1 344
1887 NI BB 15:00:00 TS 21.50 87.67 22 22 _________PO___ -1 21.50 87.65 TC 34 21.50 87.70 2 1 299
1887 NI BB 18:00:00 TS 21.51 87.64 22 22 _________OP___ -1 21.50 87.60 TC 34 21.53 87.68 2 1 309
1887 NI BB 21:00:00 TS 21.55 87.62 11 11 _________PP___ -1 21.55 87.59 TC 34 21.55 87.65 2 1 341
1887 NI BB 1887-07-21 00:00:00 TS 21.59 87.61 11 11 _________OP___ -1 21.60 87.60 TC 34 21.58 87.62 2 1 333
1887 NI BB 03:00:00 TS 21.60 87.60 11 11 _________PO___ -1 21.60 87.60 TC 34 21.60 87.60 2 0 0
1887 NI BB 06:00:00 TS 21.61 87.60 11 11 _________OP___ -1 21.60 87.60 TC 34 21.62 87.60 2 0 0
1887 NI BB 09:00:00 TS 21.65 87.60 11 0 _________PP___ -1 21.64 87.60 TC 34 21.65 87.60 2 1 19
1887 NI BB 12:00:00 TS 21.69 87.60 0 0 _________OP___ -1 21.70 87.60 TC 34 21.67 87.60 2 1 0
1887 NI BB 15:00:00 TS 21.73 87.60 0 0 _________PO___ -1 21.76 87.61 TC 34 21.70 87.60 2 1 341
1887 NI BB 18:00:00 TS 21.76 87.59 0 0 _________OP___ -1 21.80 87.60 TC 34 21.73 87.58 2 1 312
1887 NI BB 21:00:00 TS 21.78 87.55 0 0 _________PP___ -1 21.80 87.55 TC 34 21.75 87.55 2 1 291
1887 NI BB 1887-07-22 00:00:00 TS 21.79 87.51 0 0 _________OP___ -1 21.80 87.50 TC 34 21.78 87.52 2 1 309
1887 NI BB 03:00:00 TS 21.82 87.50 0 0 _________PO___ -1 21.85 87.49 TC 34 21.80 87.50 2 1 341
1887 NI BB 06:00:00 TS 21.86 87.50 0 0 _________OP___ -1 21.90 87.50 TC 34 21.82 87.50 2 1 16
1887 NI BB 09:00:00 TS 21.88 87.50 0 0 _________PP___ -1 21.91 87.51 TC 34 21.85 87.50 2 0 0
1887 NI BB 12:00:00 TS 21.89 87.50 0 0 _________OP___ -1 21.90 87.50 TC 34 21.87 87.50 2 0 0
1887 NI BB 15:00:00 TS 21.90 87.47 0 0 _________PO___ -1 21.89 87.45 TC 34 21.90 87.50 2 1 297
1887 NI BB 18:00:00 TS 21.91 87.44 0 0 _________OP___ -1 21.90 87.40 TC 34 21.93 87.48 2 1 317
1887 NI BB 21:00:00 TS 21.95 87.43 0 0 _________PP___ -1 21.94 87.40 TC 34 21.95 87.46 2 1 341
1887 NI BB 1887-07-23 00:00:00 TS 21.99 87.41 0 0 _________OP___ -1 22.00 87.40 TC 34 21.98 87.43 2 1 328
1887 NI BB 03:00:00 TS 22.03 87.38 0 0 _________PO___ -1 22.06 87.35 TC 34 22.00 87.40 2 1 316
1887 NI BB 06:00:00 TS 22.06 87.34 0 0 _________OP___ -1 22.10 87.30 TC 34 22.02 87.38 2 1 309
1887 NI BB 09:00:00 TS 22.08 87.32 0 0 _________PP___ -1 22.11 87.29 TC 34 22.05 87.35 2 0 0
1887 NI BB 12:00:00 TS 22.09 87.31 0 0 _________OP___ -1 22.10 87.30 TC 34 22.08 87.32 2 0 0
1887 NI BB 15:00:00 TS 22.10 87.30 0 0 _________PO___ -1 22.09 87.31 TC 34 22.10 87.30 2 0 0
1887 NI BB 18:00:00 TS 22.11 87.33 0 0 _________OP___ -1 22.10 87.30 TC 34 22.12 87.36 2 1 48
1887 NI BB 21:00:00 TS 22.14 87.36 0 0 _________PP___ -1 22.13 87.32 TC 34 22.15 87.40 2 1 328
1887 NI BB 1887-07-24 00:00:00 TS 22.19 87.28 0 0 _________OP___ -1 22.20 87.20 TC 34 22.17 87.37 2 4 288
1887 NI BB 03:00:00 TS 22.26 86.99 0 0 _________PO___ -1 22.32 86.78 TC 34 22.20 87.20 2 7 280
1887 NI BB 06:00:00 TS 22.31 86.51 0 0 _________OP___ -1 22.40 86.20 TC 34 22.22 86.82 2 9 272
1887 NI BB 09:00:00 TS 22.30 85.98 0 0 _________PP___ -1 22.36 85.66 TC 34 22.24 86.31 2 10 268
1887 NI BB 12:00:00 TS 22.28 85.41 0 0 _________OP___ -1 22.30 85.10 TC 34 22.26 85.71 2 11 271
1887 NI BB 15:00:00 TS 22.31 84.83 0 0 _________PO___ -1 22.33 84.55 TC 33 22.30 85.10 2 11 275
1887 NI BB 18:00:00 TS 22.37 84.27 0 0 _________OP___ -1 22.40 84.00 TC 32 22.34 84.54 2 10 277
1887 NI BB 21:00:00 TS 22.44 83.71 0 0 _________PP___ -1 22.48 83.43 TC 31 22.40 83.98 2 10 279
1887 NI BB 1887-07-25 00:00:00 TS 22.54 83.16 0 0 _________OP___ -1 22.60 82.90 TC 30 22.48 83.42 2 10 285
1887 NI BB 03:00:00 TS 22.69 82.67 0 0 _________PO___ -1 22.78 82.43 TC 30 22.60 82.90 1 10 291
1887 NI BB 06:00:00 TS 22.89 82.20 0 0 _________OP___ -1 23.00 82.00 TC 30 22.78 82.41 1 9 296
1887 NI BB 09:00:00 TS 23.10 81.75 0 0 _________PP___ -1 23.21 81.54 TC 30 22.98 81.95 1 9 297
1887 NI BB 12:00:00 TS 23.30 81.31 0 0 _________OP___ -1 23.40 81.10 TC 30 23.20 81.51 1 9 294
1887 NI BB 15:00:00 TS 23.45 80.89 0 0 _________PO___ -1 23.51 80.68 TC 30 23.40 81.10 1 8 290
1887 NI BB 18:00:00 TS 23.57 80.48 0 0 _________OP___ -1 23.60 80.30 TC 30 23.54 80.66 1 8 289
1887 NI BB 21:00:00 TS 23.70 80.08 0 0 _________PP___ -1 23.74 79.91 TC 30 23.67 80.25 1 7 292
1887 NI BB 1887-07-26 00:00:00 TS 23.84 79.75 0 0 _________OP___ -1 23.90 79.60 TC 30 23.78 79.89 1 6 297
1887 NI BB 03:00:00 TS 23.97 79.51 0 0 _________PO___ -1 24.05 79.41 TC 30 23.90 79.60 1 4 309
1887 NI BB 06:00:00 TS 24.12 79.37 0 0 _________OP___ -1 24.20 79.30 TC 30 24.04 79.44 1 4 325
1887 NI BB 09:00:00 TS 24.26 79.29 0 0 _________PP___ -1 24.34 79.23 TC 30 24.18 79.34 1 4 330
1887 NI BB 12:00:00 TS 24.42 79.17 0 0 _________OP___ -1 24.50 79.10 TC 30 24.34 79.25 1 5 317
1887 NI BB 15:00:00 TS 24.60 78.94 0 0 _________PO___ -1 24.70 78.79 TC 30 24.50 79.10 1 6 304
1887 NI BB 18:00:00 TS 24.77 78.59 0 0 _________OP___ -1 24.90 78.40 TC 30 24.65 78.79 1 7 296
1887 NI BB 21:00:00 TS 24.92 78.23 0 0 _________PP___ -1 25.04 78.03 TC 30 24.81 78.42 1 7 296
1887 NI AS 1887-07-27 00:00:00 TS 25.09 77.87 0 0 _________OP___ -1 25.20 77.70 TC 30 24.99 78.04 1 7 303
1887 NI AS 03:00:00 TS 25.31 77.56 0 0 _________PO___ -1 25.42 77.41 TC 30 25.20 77.70 1 7 314
1887 NI AS 06:00:00 TS 25.56 77.34 0 0 _________OP___ -1 25.70 77.20 TC 30 25.46 77.44 1 7 329
1887 NI AS 09:00:00 TS 25.87 77.18 0 0 _________PP___ -1 26.03 77.08 TC 30 25.75 77.26 1 7 339
1887 NI AS 12:00:00 TS 26.18 77.08 0 0 _________OP___ -1 26.40 77.00 TC 30 26.07 77.12 1 6 342
1887 NI AS 15:00:00 NR 26.40 77.00 0 __________O___ -1 TC 26.40 77.00 1 5 343